sensor_id;sensor_type;location;lat;lon;timestamp;temperature;humidity
5150;DHT22;2593;52.466;13.436;2023-03-25T00:00:07;9.20;99.90
5150;DHT22;2593;52.466;13.436;2023-03-25T00:02:42;9.20;1.00
5150;DHT22;2593;52.466;13.436;2023-03-25T00:05:10;9.20;1.00
5150;DHT22;2593;52.466;13.436;2023-03-25T00:07:37;9.10;1.00
5150;DHT22;2593;52.466;13.436;2023-03-25T00:10:03;9.10;99.90
5150;DHT22;2593;52.466;13.436;2023-03-25T00:12:29;9.10;99.90
5150;DHT22;2593;52.466;13.436;2023-03-25T00:14:55;9.10;99.90
5150;DHT22;2593;52.466;13.436;2023-03-25T00:17:24;9.10;1.00
5150;DHT22;2593;52.466;13.436;2023-03-25T00:19:56;9.00;75.60
5150;DHT22;2593;52.466;13.436;2023-03-25T00:22:25;9.00;99.90
5150;DHT22;2593;52.466;13.436;2023-03-25T00:24:51;9.00;99.90
5150;DHT22;2593;52.466;13.436;2023-03-25T00:27:17;9.00;1.00
5150;DHT22;2593;52.466;13.436;2023-03-25T00:29:44;9.00;1.00
5150;DHT22;2593;52.466;13.436;2023-03-25T00:32:10;9.00;1.00
5150;DHT22;2593;52.466;13.436;2023-03-25T00:34:36;9.00;1.00
5150;DHT22;2593;52.466;13.436;2023-03-25T00:37:07;9.00;1.00
5150;DHT22;2593;52.466;13.436;2023-03-25T00:39:33;8.90;1.00
5150;DHT22;2593;52.466;13.436;2023-03-25T00:41:59;9.00;1.00
5150;DHT22;2593;52.466;13.436;2023-03-25T00:44:27;9.00;1.00
5150;DHT22;2593;52.466;13.436;2023-03-25T00:46:53;9.00;1.00
5150;DHT22;2593;52.466;13.436;2023-03-25T00:49:18;9.00;1.00
5150;DHT22;2593;52.466;13.436;2023-03-25T00:51:50;9.00;1.00
5150;DHT22;2593;52.466;13.436;2023-03-25T00:54:16;9.00;1.00
5150;DHT22;2593;52.466;13.436;2023-03-25T00:56:42;8.90;1.00
5150;DHT22;2593;52.466;13.436;2023-03-25T00:59:08;8.90;1.00
5150;DHT22;2593;52.466;13.436;2023-03-25T01:01:34;9.00;99.90
5150;DHT22;2593;52.466;13.436;2023-03-25T01:04:04;8.90;99.90
5150;DHT22;2593;52.466;13.436;2023-03-25T01:06:38;8.90;1.00
5150;DHT22;2593;52.466;13.436;2023-03-25T01:09:09;8.80;1.00
5150;DHT22;2593;52.466;13.436;2023-03-25T01:11:35;8.80;73.70
5150;DHT22;2593;52.466;13.436;2023-03-25T01:14:05;8.80;99.90
5150;DHT22;2593;52.466;13.436;2023-03-25T01:16:32;8.70;1.00
5150;DHT22;2593;52.466;13.436;2023-03-25T01:18:58;8.70;99.90
5150;DHT22;2593;52.466;13.436;2023-03-25T01:21:23;8.70;99.90
5150;DHT22;2593;52.466;13.436;2023-03-25T01:23:49;8.70;99.90
5150;DHT22;2593;52.466;13.436;2023-03-25T01:26:15;8.70;99.90
5150;DHT22;2593;52.466;13.436;2023-03-25T01:28:42;8.70;99.90
5150;DHT22;2593;52.466;13.436;2023-03-25T01:31:10;8.60;99.90
5150;DHT22;2593;52.466;13.436;2023-03-25T01:33:36;8.60;99.90
5150;DHT22;2593;52.466;13.436;2023-03-25T01:36:03;8.60;99.90
5150;DHT22;2593;52.466;13.436;2023-03-25T01:38:34;8.50;1.00
5150;DHT22;2593;52.466;13.436;2023-03-25T01:41:00;8.60;1.00
5150;DHT22;2593;52.466;13.436;2023-03-25T01:43:25;8.60;61.00
5150;DHT22;2593;52.466;13.436;2023-03-25T01:45:51;8.50;99.90
5150;DHT22;2593;52.466;13.436;2023-03-25T01:48:24;8.50;99.90
5150;DHT22;2593;52.466;13.436;2023-03-25T01:50:58;8.50;1.00
5150;DHT22;2593;52.466;13.436;2023-03-25T01:53:27;8.50;1.00
5150;DHT22;2593;52.466;13.436;2023-03-25T01:55:54;8.40;1.00
5150;DHT22;2593;52.466;13.436;2023-03-25T01:58:21;8.40;1.00
5150;DHT22;2593;52.466;13.436;2023-03-25T02:00:49;8.40;1.00
5150;DHT22;2593;52.466;13.436;2023-03-25T02:03:17;8.40;1.00
5150;DHT22;2593;52.466;13.436;2023-03-25T02:05:57;8.40;1.00
5150;DHT22;2593;52.466;13.436;2023-03-25T02:08:25;8.40;1.00
5150;DHT22;2593;52.466;13.436;2023-03-25T02:10:51;8.40;1.00
5150;DHT22;2593;52.466;13.436;2023-03-25T02:13:18;8.40;1.00
5150;DHT22;2593;52.466;13.436;2023-03-25T02:19:04;8.40;52.10
5150;DHT22;2593;52.466;13.436;2023-03-25T02:44:10;8.80;1.00
5150;DHT22;2593;52.466;13.436;2023-03-25T02:46:40;8.90;99.90
5150;DHT22;2593;52.466;13.436;2023-03-25T02:49:21;8.90;99.90
5150;DHT22;2593;52.466;13.436;2023-03-25T02:51:58;8.90;99.90
5150;DHT22;2593;52.466;13.436;2023-03-25T02:54:26;8.90;99.90
5150;DHT22;2593;52.466;13.436;2023-03-25T02:56:54;9.00;99.90
5150;DHT22;2593;52.466;13.436;2023-03-25T02:59:23;9.00;99.90
5150;DHT22;2593;52.466;13.436;2023-03-25T03:01:53;9.00;2.60
5150;DHT22;2593;52.466;13.436;2023-03-25T03:04:23;8.90;1.00
5150;DHT22;2593;52.466;13.436;2023-03-25T03:06:50;8.90;1.00
5150;DHT22;2593;52.466;13.436;2023-03-25T03:09:35;9.00;1.00
5150;DHT22;2593;52.466;13.436;2023-03-25T03:12:21;9.00;1.00
5150;DHT22;2593;52.466;13.436;2023-03-25T03:15:09;9.00;1.00
5150;DHT22;2593;52.466;13.436;2023-03-25T03:23:08;9.10;99.90
5150;DHT22;2593;52.466;13.436;2023-03-25T03:26:24;9.10;99.90
5150;DHT22;2593;52.466;13.436;2023-03-25T03:28:59;9.10;99.90
5150;DHT22;2593;52.466;13.436;2023-03-25T03:32:19;9.10;1.00
5150;DHT22;2593;52.466;13.436;2023-03-25T03:34:30;9.20;99.90
5150;DHT22;2593;52.466;13.436;2023-03-25T03:37:02;9.20;1.00
5150;DHT22;2593;52.466;13.436;2023-03-25T03:39:34;9.20;99.90
5150;DHT22;2593;52.466;13.436;2023-03-25T03:44:48;9.20;98.80
5150;DHT22;2593;52.466;13.436;2023-03-25T03:47:24;9.10;99.90
5150;DHT22;2593;52.466;13.436;2023-03-25T03:50:00;9.10;99.90
5150;DHT22;2593;52.466;13.436;2023-03-25T03:52:36;9.10;99.90
5150;DHT22;2593;52.466;13.436;2023-03-25T03:55:34;9.10;99.90
5150;DHT22;2593;52.466;13.436;2023-03-25T03:58:07;9.00;99.90
5150;DHT22;2593;52.466;13.436;2023-03-25T04:01:21;9.00;1.00
5150;DHT22;2593;52.466;13.436;2023-03-25T04:03:33;9.00;1.00
5150;DHT22;2593;52.466;13.436;2023-03-25T04:06:28;9.00;1.00
5150;DHT22;2593;52.466;13.436;2023-03-25T04:09:01;9.00;1.00
5150;DHT22;2593;52.466;13.436;2023-03-25T04:11:35;9.00;1.00
5150;DHT22;2593;52.466;13.436;2023-03-25T04:14:02;9.00;1.00
5150;DHT22;2593;52.466;13.436;2023-03-25T04:16:29;9.00;3.60
5150;DHT22;2593;52.466;13.436;2023-03-25T04:18:56;9.00;1.00
5150;DHT22;2593;52.466;13.436;2023-03-25T04:21:22;9.00;1.00
5150;DHT22;2593;52.466;13.436;2023-03-25T04:23:49;9.00;30.70
5150;DHT22;2593;52.466;13.436;2023-03-25T04:26:16;9.00;6.70
5150;DHT22;2593;52.466;13.436;2023-03-25T04:28:41;9.00;1.00
5150;DHT22;2593;52.466;13.436;2023-03-25T04:31:14;9.00;1.00
5150;DHT22;2593;52.466;13.436;2023-03-25T04:33:43;9.00;1.00
5150;DHT22;2593;52.466;13.436;2023-03-25T04:36:13;9.10;1.00
5150;DHT22;2593;52.466;13.436;2023-03-25T04:38:39;9.10;1.00
5150;DHT22;2593;52.466;13.436;2023-03-25T04:41:06;9.20;1.00
5150;DHT22;2593;52.466;13.436;2023-03-25T04:43:32;9.20;1.00
5150;DHT22;2593;52.466;13.436;2023-03-25T04:45:58;9.20;1.00
5150;DHT22;2593;52.466;13.436;2023-03-25T04:48:29;9.20;99.90
5150;DHT22;2593;52.466;13.436;2023-03-25T04:50:56;9.20;99.90
5150;DHT22;2593;52.466;13.436;2023-03-25T04:53:26;9.20;99.90
5150;DHT22;2593;52.466;13.436;2023-03-25T04:55:54;9.20;99.90
5150;DHT22;2593;52.466;13.436;2023-03-25T04:58:20;9.10;99.90
5150;DHT22;2593;52.466;13.436;2023-03-25T05:00:47;9.10;99.90
5150;DHT22;2593;52.466;13.436;2023-03-25T05:03:14;9.00;99.90
5150;DHT22;2593;52.466;13.436;2023-03-25T05:05:40;9.00;99.90
5150;DHT22;2593;52.466;13.436;2023-03-25T05:08:06;8.90;99.90
5150;DHT22;2593;52.466;13.436;2023-03-25T05:10:33;8.90;99.90
5150;DHT22;2593;52.466;13.436;2023-03-25T05:13:03;8.90;99.90
5150;DHT22;2593;52.466;13.436;2023-03-25T05:15:31;8.90;99.90
5150;DHT22;2593;52.466;13.436;2023-03-25T05:18:00;8.90;99.90
5150;DHT22;2593;52.466;13.436;2023-03-25T05:20:26;8.90;99.90
5150;DHT22;2593;52.466;13.436;2023-03-25T05:22:52;8.80;99.90
5150;DHT22;2593;52.466;13.436;2023-03-25T05:25:21;8.80;99.90
5150;DHT22;2593;52.466;13.436;2023-03-25T05:27:47;8.80;99.90
5150;DHT22;2593;52.466;13.436;2023-03-25T05:30:13;8.70;99.90
5150;DHT22;2593;52.466;13.436;2023-03-25T05:32:40;8.80;92.20
5150;DHT22;2593;52.466;13.436;2023-03-25T05:35:07;8.80;99.90
5150;DHT22;2593;52.466;13.436;2023-03-25T05:37:32;8.80;91.20
5150;DHT22;2593;52.466;13.436;2023-03-25T05:39:58;8.80;1.00
5150;DHT22;2593;52.466;13.436;2023-03-25T05:42:24;8.80;1.00
5150;DHT22;2593;52.466;13.436;2023-03-25T05:44:53;8.80;99.90
5150;DHT22;2593;52.466;13.436;2023-03-25T05:47:20;8.90;1.00
5150;DHT22;2593;52.466;13.436;2023-03-25T05:49:48;9.00;1.00
5150;DHT22;2593;52.466;13.436;2023-03-25T05:52:15;9.00;73.70
5150;DHT22;2593;52.466;13.436;2023-03-25T05:54:42;9.10;1.00
5150;DHT22;2593;52.466;13.436;2023-03-25T05:57:09;9.20;99.90
5150;DHT22;2593;52.466;13.436;2023-03-25T05:59:35;9.30;1.00
5150;DHT22;2593;52.466;13.436;2023-03-25T06:02:06;9.40;75.30
5150;DHT22;2593;52.466;13.436;2023-03-25T06:04:35;9.30;1.00
5150;DHT22;2593;52.466;13.436;2023-03-25T06:07:12;9.30;1.00
5150;DHT22;2593;52.466;13.436;2023-03-25T06:09:42;9.30;1.00
5150;DHT22;2593;52.466;13.436;2023-03-25T06:12:21;9.30;99.90
5150;DHT22;2593;52.466;13.436;2023-03-25T06:14:47;9.40;99.90
5150;DHT22;2593;52.466;13.436;2023-03-25T06:17:19;9.40;32.90
5150;DHT22;2593;52.466;13.436;2023-03-25T06:19:46;9.50;1.00
5150;DHT22;2593;52.466;13.436;2023-03-25T06:22:12;9.60;99.90
5150;DHT22;2593;52.466;13.436;2023-03-25T06:24:39;9.60;99.90
5150;DHT22;2593;52.466;13.436;2023-03-25T06:27:07;9.70;99.90
5150;DHT22;2593;52.466;13.436;2023-03-25T06:29:34;9.60;65.00
5150;DHT22;2593;52.466;13.436;2023-03-25T06:32:04;9.70;34.50
5150;DHT22;2593;52.466;13.436;2023-03-25T06:34:30;9.60;17.00
5150;DHT22;2593;52.466;13.436;2023-03-25T06:36:58;9.80;1.00
5150;DHT22;2593;52.466;13.436;2023-03-25T06:39:23;9.80;1.00
5150;DHT22;2593;52.466;13.436;2023-03-25T06:41:49;9.90;1.00
5150;DHT22;2593;52.466;13.436;2023-03-25T06:44:15;10.00;1.00
5150;DHT22;2593;52.466;13.436;2023-03-25T06:46:42;9.90;1.00
5150;DHT22;2593;52.466;13.436;2023-03-25T06:49:08;10.10;1.00
5150;DHT22;2593;52.466;13.436;2023-03-25T06:51:34;10.20;1.00
5150;DHT22;2593;52.466;13.436;2023-03-25T06:53:59;10.10;1.00
5150;DHT22;2593;52.466;13.436;2023-03-25T06:56:25;10.00;1.00
5150;DHT22;2593;52.466;13.436;2023-03-25T06:58:51;10.10;1.00
5150;DHT22;2593;52.466;13.436;2023-03-25T07:01:16;10.20;1.00
5150;DHT22;2593;52.466;13.436;2023-03-25T07:03:42;10.20;1.00
5150;DHT22;2593;52.466;13.436;2023-03-25T07:06:15;10.30;1.00
5150;DHT22;2593;52.466;13.436;2023-03-25T07:08:40;10.40;99.90
5150;DHT22;2593;52.466;13.436;2023-03-25T07:11:06;10.60;99.90
5150;DHT22;2593;52.466;13.436;2023-03-25T07:13:32;10.70;99.90
5150;DHT22;2593;52.466;13.436;2023-03-25T07:15:58;11.20;99.90
5150;DHT22;2593;52.466;13.436;2023-03-25T07:18:24;12.30;99.90
5150;DHT22;2593;52.466;13.436;2023-03-25T07:20:50;13.80;1.00
5150;DHT22;2593;52.466;13.436;2023-03-25T07:23:15;14.50;1.00
5150;DHT22;2593;52.466;13.436;2023-03-25T07:25:41;15.90;1.00
5150;DHT22;2593;52.466;13.436;2023-03-25T07:28:07;17.30;1.00
5150;DHT22;2593;52.466;13.436;2023-03-25T07:30:32;18.00;1.00
5150;DHT22;2593;52.466;13.436;2023-03-25T07:32:58;19.00;1.00
5150;DHT22;2593;52.466;13.436;2023-03-25T07:35:24;19.80;1.00
5150;DHT22;2593;52.466;13.436;2023-03-25T07:37:49;18.90;1.00
5150;DHT22;2593;52.466;13.436;2023-03-25T07:40:15;19.70;1.00
5150;DHT22;2593;52.466;13.436;2023-03-25T07:42:41;20.60;1.00
5150;DHT22;2593;52.466;13.436;2023-03-25T07:45:07;21.60;1.00
5150;DHT22;2593;52.466;13.436;2023-03-25T07:47:32;22.20;1.00
5150;DHT22;2593;52.466;13.436;2023-03-25T07:49:58;23.40;1.00
5150;DHT22;2593;52.466;13.436;2023-03-25T07:52:24;24.40;1.00
5150;DHT22;2593;52.466;13.436;2023-03-25T07:54:49;24.60;1.00
5150;DHT22;2593;52.466;13.436;2023-03-25T07:57:15;22.70;1.00
5150;DHT22;2593;52.466;13.436;2023-03-25T07:59:40;21.10;1.00
5150;DHT22;2593;52.466;13.436;2023-03-25T08:02:08;19.20;1.00
5150;DHT22;2593;52.466;13.436;2023-03-25T08:04:33;18.10;1.00
5150;DHT22;2593;52.466;13.436;2023-03-25T08:06:59;17.20;1.00
5150;DHT22;2593;52.466;13.436;2023-03-25T08:09:25;16.20;1.00
5150;DHT22;2593;52.466;13.436;2023-03-25T08:11:51;15.50;1.00
5150;DHT22;2593;52.466;13.436;2023-03-25T08:14:17;15.20;1.00
5150;DHT22;2593;52.466;13.436;2023-03-25T08:16:42;14.60;1.00
5150;DHT22;2593;52.466;13.436;2023-03-25T08:19:08;15.10;1.00
5150;DHT22;2593;52.466;13.436;2023-03-25T08:21:34;15.60;1.00
5150;DHT22;2593;52.466;13.436;2023-03-25T08:23:59;16.50;1.00
5150;DHT22;2593;52.466;13.436;2023-03-25T08:26:32;16.50;1.00
5150;DHT22;2593;52.466;13.436;2023-03-25T08:28:59;16.30;1.00
5150;DHT22;2593;52.466;13.436;2023-03-25T08:31:28;16.30;1.00
5150;DHT22;2593;52.466;13.436;2023-03-25T08:33:59;16.80;1.00
5150;DHT22;2593;52.466;13.436;2023-03-25T08:36:24;18.10;1.00
5150;DHT22;2593;52.466;13.436;2023-03-25T08:38:50;18.30;1.00
5150;DHT22;2593;52.466;13.436;2023-03-25T08:41:17;18.40;1.00
5150;DHT22;2593;52.466;13.436;2023-03-25T08:43:43;18.20;1.00
5150;DHT22;2593;52.466;13.436;2023-03-25T08:46:08;17.80;1.00
5150;DHT22;2593;52.466;13.436;2023-03-25T08:48:34;16.70;1.00
5150;DHT22;2593;52.466;13.436;2023-03-25T08:51:00;16.40;1.00
5150;DHT22;2593;52.466;13.436;2023-03-25T08:53:26;16.10;1.00
5150;DHT22;2593;52.466;13.436;2023-03-25T08:55:52;15.60;1.00
5150;DHT22;2593;52.466;13.436;2023-03-25T08:58:18;15.40;1.00
5150;DHT22;2593;52.466;13.436;2023-03-25T09:00:45;14.90;1.00
5150;DHT22;2593;52.466;13.436;2023-03-25T09:03:11;14.50;1.00
5150;DHT22;2593;52.466;13.436;2023-03-25T09:05:37;13.90;1.00
5150;DHT22;2593;52.466;13.436;2023-03-25T09:08:04;13.60;1.00
5150;DHT22;2593;52.466;13.436;2023-03-25T09:10:29;13.90;1.00
5150;DHT22;2593;52.466;13.436;2023-03-25T09:12:55;14.10;1.00
5150;DHT22;2593;52.466;13.436;2023-03-25T09:15:21;14.00;1.00
5150;DHT22;2593;52.466;13.436;2023-03-25T09:17:47;13.50;1.00
5150;DHT22;2593;52.466;13.436;2023-03-25T09:20:13;13.40;1.00
5150;DHT22;2593;52.466;13.436;2023-03-25T09:22:39;13.00;1.00
5150;DHT22;2593;52.466;13.436;2023-03-25T09:25:06;12.90;1.00
5150;DHT22;2593;52.466;13.436;2023-03-25T09:27:32;13.00;1.00
5150;DHT22;2593;52.466;13.436;2023-03-25T09:29:58;13.10;1.00
5150;DHT22;2593;52.466;13.436;2023-03-25T09:32:24;13.20;1.00
5150;DHT22;2593;52.466;13.436;2023-03-25T09:34:50;13.20;1.00
5150;DHT22;2593;52.466;13.436;2023-03-25T09:37:16;13.20;1.00
5150;DHT22;2593;52.466;13.436;2023-03-25T09:39:42;13.00;1.00
5150;DHT22;2593;52.466;13.436;2023-03-25T09:44:54;12.90;1.00
5150;DHT22;2593;52.466;13.436;2023-03-25T09:47:22;12.90;1.00
5150;DHT22;2593;52.466;13.436;2023-03-25T09:49:52;12.70;1.00
5150;DHT22;2593;52.466;13.436;2023-03-25T09:55:13;13.00;1.00
5150;DHT22;2593;52.466;13.436;2023-03-25T09:57:46;13.00;1.00
5150;DHT22;2593;52.466;13.436;2023-03-25T10:00:17;13.50;1.00
5150;DHT22;2593;52.466;13.436;2023-03-25T10:03:03;15.00;1.00
5150;DHT22;2593;52.466;13.436;2023-03-25T10:05:56;16.70;1.00
5150;DHT22;2593;52.466;13.436;2023-03-25T10:15:58;15.00;1.00
5150;DHT22;2593;52.466;13.436;2023-03-25T10:18:39;15.00;1.00
5150;DHT22;2593;52.466;13.436;2023-03-25T10:21:12;14.40;1.00
5150;DHT22;2593;52.466;13.436;2023-03-25T10:23:47;14.10;1.00
5150;DHT22;2593;52.466;13.436;2023-03-25T10:26:36;13.80;1.00
5150;DHT22;2593;52.466;13.436;2023-03-25T10:29:53;13.70;1.00
5150;DHT22;2593;52.466;13.436;2023-03-25T10:31:56;14.30;1.00
5150;DHT22;2593;52.466;13.436;2023-03-25T10:34:38;15.50;1.00
5150;DHT22;2593;52.466;13.436;2023-03-25T10:37:11;17.00;1.00
5150;DHT22;2593;52.466;13.436;2023-03-25T10:39:41;17.50;1.00
5150;DHT22;2593;52.466;13.436;2023-03-25T10:42:23;17.60;1.00
5150;DHT22;2593;52.466;13.436;2023-03-25T10:44:51;16.60;1.00
5150;DHT22;2593;52.466;13.436;2023-03-25T10:47:22;15.60;1.00
5150;DHT22;2593;52.466;13.436;2023-03-25T10:49:50;14.90;1.00
5150;DHT22;2593;52.466;13.436;2023-03-25T10:52:16;14.70;1.00
5150;DHT22;2593;52.466;13.436;2023-03-25T10:54:45;14.60;1.00
5150;DHT22;2593;52.466;13.436;2023-03-25T10:57:31;14.70;1.00
5150;DHT22;2593;52.466;13.436;2023-03-25T11:00:07;14.60;1.00
5150;DHT22;2593;52.466;13.436;2023-03-25T11:02:44;14.50;1.00
5150;DHT22;2593;52.466;13.436;2023-03-25T11:05:12;14.50;1.00
5150;DHT22;2593;52.466;13.436;2023-03-25T11:07:49;14.60;1.00
5150;DHT22;2593;52.466;13.436;2023-03-25T11:12:44;14.90;1.00
5150;DHT22;2593;52.466;13.436;2023-03-25T11:15:15;14.90;1.00
5150;DHT22;2593;52.466;13.436;2023-03-25T11:17:45;14.90;1.00
5150;DHT22;2593;52.466;13.436;2023-03-25T11:20:36;14.90;1.00
5150;DHT22;2593;52.466;13.436;2023-03-25T11:23:26;14.80;1.00
5150;DHT22;2593;52.466;13.436;2023-03-25T11:25:53;14.90;1.00
5150;DHT22;2593;52.466;13.436;2023-03-25T11:31:14;15.00;1.00
5150;DHT22;2593;52.466;13.436;2023-03-25T11:33:43;14.70;1.00
5150;DHT22;2593;52.466;13.436;2023-03-25T11:38:37;14.80;1.00
5150;DHT22;2593;52.466;13.436;2023-03-25T11:41:03;15.00;1.00
5150;DHT22;2593;52.466;13.436;2023-03-25T11:43:36;15.10;1.00
5150;DHT22;2593;52.466;13.436;2023-03-25T11:46:14;15.10;1.00
5150;DHT22;2593;52.466;13.436;2023-03-25T11:48:42;15.00;1.00
5150;DHT22;2593;52.466;13.436;2023-03-25T11:51:27;14.80;1.00
5150;DHT22;2593;52.466;13.436;2023-03-25T11:54:00;14.10;1.00
5150;DHT22;2593;52.466;13.436;2023-03-25T11:56:36;13.70;1.00
5150;DHT22;2593;52.466;13.436;2023-03-25T11:59:07;13.80;1.00
5150;DHT22;2593;52.466;13.436;2023-03-25T12:01:40;13.90;1.00
5150;DHT22;2593;52.466;13.436;2023-03-25T12:04:19;13.60;1.00
5150;DHT22;2593;52.466;13.436;2023-03-25T12:07:06;13.60;1.00
5150;DHT22;2593;52.466;13.436;2023-03-25T12:09:35;13.70;1.00
5150;DHT22;2593;52.466;13.436;2023-03-25T12:15:17;13.60;1.00
5150;DHT22;2593;52.466;13.436;2023-03-25T12:18:11;13.70;1.00
5150;DHT22;2593;52.466;13.436;2023-03-25T12:25:57;14.20;1.00
5150;DHT22;2593;52.466;13.436;2023-03-25T12:33:41;14.20;1.00
5150;DHT22;2593;52.466;13.436;2023-03-25T12:41:42;14.00;1.00
5150;DHT22;2593;52.466;13.436;2023-03-25T12:50:03;13.70;1.00
5150;DHT22;2593;52.466;13.436;2023-03-25T12:55:22;14.10;1.00
5150;DHT22;2593;52.466;13.436;2023-03-25T13:00:30;14.80;1.00
5150;DHT22;2593;52.466;13.436;2023-03-25T13:03:38;14.90;1.00
5150;DHT22;2593;52.466;13.436;2023-03-25T13:09:05;15.00;1.00
5150;DHT22;2593;52.466;13.436;2023-03-25T13:11:40;15.00;1.00
5150;DHT22;2593;52.466;13.436;2023-03-25T13:14:16;14.80;1.00
5150;DHT22;2593;52.466;13.436;2023-03-25T13:16:46;14.80;1.00
5150;DHT22;2593;52.466;13.436;2023-03-25T13:19:16;14.70;1.00
5150;DHT22;2593;52.466;13.436;2023-03-25T13:21:48;14.50;1.00
5150;DHT22;2593;52.466;13.436;2023-03-25T13:24:20;14.30;1.00
5150;DHT22;2593;52.466;13.436;2023-03-25T13:26:49;13.70;1.00
5150;DHT22;2593;52.466;13.436;2023-03-25T13:29:27;13.20;1.00
5150;DHT22;2593;52.466;13.436;2023-03-25T13:31:56;12.90;1.00
5150;DHT22;2593;52.466;13.436;2023-03-25T13:34:34;12.70;1.00
5150;DHT22;2593;52.466;13.436;2023-03-25T13:45:49;12.00;1.00
5150;DHT22;2593;52.466;13.436;2023-03-25T13:48:24;11.80;1.00
5150;DHT22;2593;52.466;13.436;2023-03-25T13:50:53;11.80;1.00
5150;DHT22;2593;52.466;13.436;2023-03-25T13:53:28;11.70;1.00
5150;DHT22;2593;52.466;13.436;2023-03-25T13:56:00;11.60;1.00
5150;DHT22;2593;52.466;13.436;2023-03-25T14:09:29;11.10;91.50
5150;DHT22;2593;52.466;13.436;2023-03-25T14:14:37;11.10;99.90
5150;DHT22;2593;52.466;13.436;2023-03-25T14:17:04;11.30;99.90
5150;DHT22;2593;52.466;13.436;2023-03-25T14:19:39;11.60;99.90
5150;DHT22;2593;52.466;13.436;2023-03-25T14:22:16;11.60;99.90
5150;DHT22;2593;52.466;13.436;2023-03-25T14:24:44;11.80;99.90
5150;DHT22;2593;52.466;13.436;2023-03-25T14:27:14;11.90;84.00
5150;DHT22;2593;52.466;13.436;2023-03-25T14:29:55;11.90;5.50
5150;DHT22;2593;52.466;13.436;2023-03-25T14:34:51;12.00;1.00
5150;DHT22;2593;52.466;13.436;2023-03-25T14:37:24;12.00;1.00
5150;DHT22;2593;52.466;13.436;2023-03-25T14:39:56;11.90;1.00
5150;DHT22;2593;52.466;13.436;2023-03-25T14:42:29;12.00;1.00
5150;DHT22;2593;52.466;13.436;2023-03-25T14:47:59;12.00;1.00
5150;DHT22;2593;52.466;13.436;2023-03-25T14:52:57;12.00;1.00
5150;DHT22;2593;52.466;13.436;2023-03-25T14:58:19;12.10;1.00
5150;DHT22;2593;52.466;13.436;2023-03-25T15:00:52;12.30;1.00
5150;DHT22;2593;52.466;13.436;2023-03-25T15:03:19;12.40;1.00
5150;DHT22;2593;52.466;13.436;2023-03-25T15:05:54;12.20;1.00
5150;DHT22;2593;52.466;13.436;2023-03-25T15:08:33;12.20;1.00
5150;DHT22;2593;52.466;13.436;2023-03-25T15:11:12;12.40;1.00
5150;DHT22;2593;52.466;13.436;2023-03-25T15:13:41;12.40;1.00
5150;DHT22;2593;52.466;13.436;2023-03-25T15:18:58;12.30;1.00
5150;DHT22;2593;52.466;13.436;2023-03-25T15:21:30;12.30;1.00
5150;DHT22;2593;52.466;13.436;2023-03-25T15:34:36;12.10;1.00
5150;DHT22;2593;52.466;13.436;2023-03-25T15:42:32;11.90;1.00
5150;DHT22;2593;52.466;13.436;2023-03-25T15:50:40;11.90;1.00
5150;DHT22;2593;52.466;13.436;2023-03-25T15:56:20;11.90;1.00
5150;DHT22;2593;52.466;13.436;2023-03-25T15:58:55;11.90;1.00
5150;DHT22;2593;52.466;13.436;2023-03-25T16:01:30;11.80;1.00
5150;DHT22;2593;52.466;13.436;2023-03-25T16:04:08;11.70;1.00
5150;DHT22;2593;52.466;13.436;2023-03-25T16:06:43;11.70;1.00
5150;DHT22;2593;52.466;13.436;2023-03-25T16:09:22;11.60;1.00
5150;DHT22;2593;52.466;13.436;2023-03-25T16:11:49;11.60;1.00
5150;DHT22;2593;52.466;13.436;2023-03-25T16:14:17;11.50;1.00
5150;DHT22;2593;52.466;13.436;2023-03-25T16:19:17;11.50;1.00
5150;DHT22;2593;52.466;13.436;2023-03-25T16:21:47;11.50;1.00
5150;DHT22;2593;52.466;13.436;2023-03-25T16:24:13;11.50;1.00
5150;DHT22;2593;52.466;13.436;2023-03-25T16:26:45;11.40;1.00
5150;DHT22;2593;52.466;13.436;2023-03-25T16:29:20;11.40;1.00
5150;DHT22;2593;52.466;13.436;2023-03-25T16:31:57;11.40;42.40
5150;DHT22;2593;52.466;13.436;2023-03-25T16:34:25;11.40;99.90
5150;DHT22;2593;52.466;13.436;2023-03-25T16:36:52;11.30;1.00
5150;DHT22;2593;52.466;13.436;2023-03-25T16:39:19;11.10;1.00
5150;DHT22;2593;52.466;13.436;2023-03-25T16:41:48;11.10;1.00
5150;DHT22;2593;52.466;13.436;2023-03-25T16:44:16;11.10;1.00
5150;DHT22;2593;52.466;13.436;2023-03-25T16:46:45;11.10;1.00
5150;DHT22;2593;52.466;13.436;2023-03-25T16:49:20;11.00;1.00
5150;DHT22;2593;52.466;13.436;2023-03-25T16:51:49;10.80;1.00
5150;DHT22;2593;52.466;13.436;2023-03-25T16:54:26;10.70;1.00
5150;DHT22;2593;52.466;13.436;2023-03-25T16:56:55;10.70;1.00
5150;DHT22;2593;52.466;13.436;2023-03-25T16:59:27;10.80;99.90
5150;DHT22;2593;52.466;13.436;2023-03-25T17:01:58;10.80;99.90
5150;DHT22;2593;52.466;13.436;2023-03-25T17:04:39;10.80;99.90
5150;DHT22;2593;52.466;13.436;2023-03-25T17:07:16;10.80;99.90
5150;DHT22;2593;52.466;13.436;2023-03-25T17:09:50;10.80;1.00
5150;DHT22;2593;52.466;13.436;2023-03-25T17:12:19;10.90;1.00
5150;DHT22;2593;52.466;13.436;2023-03-25T17:14:47;10.80;1.00
5150;DHT22;2593;52.466;13.436;2023-03-25T17:17:41;10.80;23.90
5150;DHT22;2593;52.466;13.436;2023-03-25T17:20:40;10.80;91.10
5150;DHT22;2593;52.466;13.436;2023-03-25T17:25:52;10.70;1.00
5150;DHT22;2593;52.466;13.436;2023-03-25T17:28:33;10.70;1.00
5150;DHT22;2593;52.466;13.436;2023-03-25T17:31:24;10.70;99.90
5150;DHT22;2593;52.466;13.436;2023-03-25T17:34:13;10.60;99.90
5150;DHT22;2593;52.466;13.436;2023-03-25T17:36:43;10.60;99.90
5150;DHT22;2593;52.466;13.436;2023-03-25T17:39:18;10.50;62.70
5150;DHT22;2593;52.466;13.436;2023-03-25T17:41:45;10.50;1.00
5150;DHT22;2593;52.466;13.436;2023-03-25T17:44:16;10.40;1.00
5150;DHT22;2593;52.466;13.436;2023-03-25T17:46:42;10.40;1.00
5150;DHT22;2593;52.466;13.436;2023-03-25T17:49:16;10.40;1.00
5150;DHT22;2593;52.466;13.436;2023-03-25T17:51:43;10.40;1.00
5150;DHT22;2593;52.466;13.436;2023-03-25T17:54:10;10.40;99.90
5150;DHT22;2593;52.466;13.436;2023-03-25T17:56:36;10.40;94.20
5150;DHT22;2593;52.466;13.436;2023-03-25T17:59:25;10.40;99.90
5150;DHT22;2593;52.466;13.436;2023-03-25T18:01:51;10.30;43.50
5150;DHT22;2593;52.466;13.436;2023-03-25T18:04:18;10.30;16.30
5150;DHT22;2593;52.466;13.436;2023-03-25T18:06:45;10.30;1.00
5150;DHT22;2593;52.466;13.436;2023-03-25T18:11:44;10.20;92.70
5150;DHT22;2593;52.466;13.436;2023-03-25T18:14:10;10.20;99.90
5150;DHT22;2593;52.466;13.436;2023-03-25T18:16:36;10.10;97.60
5150;DHT22;2593;52.466;13.436;2023-03-25T18:19:02;10.10;99.90
5150;DHT22;2593;52.466;13.436;2023-03-25T18:21:28;10.10;99.90
5150;DHT22;2593;52.466;13.436;2023-03-25T18:23:53;10.10;99.90
5150;DHT22;2593;52.466;13.436;2023-03-25T18:26:19;10.00;68.90
5150;DHT22;2593;52.466;13.436;2023-03-25T18:28:46;10.10;99.90
5150;DHT22;2593;52.466;13.436;2023-03-25T18:31:13;10.00;99.90
5150;DHT22;2593;52.466;13.436;2023-03-25T18:33:45;10.00;99.90
5150;DHT22;2593;52.466;13.436;2023-03-25T18:36:12;10.00;99.90
5150;DHT22;2593;52.466;13.436;2023-03-25T18:38:37;10.00;1.00
5150;DHT22;2593;52.466;13.436;2023-03-25T18:41:03;10.00;1.00
5150;DHT22;2593;52.466;13.436;2023-03-25T18:43:29;10.00;1.00
5150;DHT22;2593;52.466;13.436;2023-03-25T18:45:55;10.00;1.00
5150;DHT22;2593;52.466;13.436;2023-03-25T18:48:21;10.10;99.90
5150;DHT22;2593;52.466;13.436;2023-03-25T18:50:54;10.10;99.90
5150;DHT22;2593;52.466;13.436;2023-03-25T18:53:22;10.10;99.90
5150;DHT22;2593;52.466;13.436;2023-03-25T18:55:49;10.10;99.90
5150;DHT22;2593;52.466;13.436;2023-03-25T18:58:17;10.10;99.90